Time;durP1;ratioP1;P1;durP2;ratioP2;P2;SDS_P1;SDS_P2;PMS_P1;PMS_P2;Temp;Humidity;BMP_temperature;BMP_pressure;BME280_temperature;BME280_humidity;BME280_pressure;Samples;Min_cycle;Max_cycle;Signal;HPM_P1;HPM_P2
2023/07/13 00:01:38;;;;;;;2.17;1.95;;;21.80;99.20;;;;;;5105637;28;20218;-79
2023/07/13 00:04:05;;;;;;;3.35;1.85;;;21.80;99.30;;;;;;5105976;28;20287;-79
2023/07/13 00:06:32;;;;;;;4.38;1.98;;;21.80;99.40;;;;;;5106365;28;20843;-79
2023/07/13 00:08:59;;;;;;;1.73;1.60;;;21.80;99.40;;;;;;5124973;28;20273;-79
2023/07/13 00:11:26;;;;;;;2.65;2.05;;;21.70;99.50;;;;;;5113734;28;20642;-79
2023/07/13 00:13:55;;;;;;;3.70;1.98;;;21.70;99.50;;;;;;5121105;28;20256;-79
2023/07/13 00:16:22;;;;;;;3.38;2.00;;;21.60;99.50;;;;;;5125753;28;20296;-79
2023/07/13 00:18:48;;;;;;;4.35;1.70;;;21.60;99.60;;;;;;5125448;27;20252;-78
2023/07/13 00:21:15;;;;;;;5.13;1.98;;;21.70;99.70;;;;;;5125764;27;20284;-79
2023/07/13 00:23:43;;;;;;;4.47;1.75;;;21.70;99.70;;;;;;5109113;28;20206;-79
2023/07/13 00:26:12;;;;;;;3.53;1.90;;;21.60;99.90;;;;;;5109283;28;20206;-79
2023/07/13 00:28:41;;;;;;;2.20;1.55;;;21.60;99.80;;;;;;5108980;28;20267;-84
2023/07/13 00:31:10;;;;;;;1.92;1.70;;;21.50;99.90;;;;;;5110216;27;20207;-79
2023/07/13 00:33:37;;;;;;;2.67;1.98;;;21.50;99.90;;;;;;5110068;27;20210;-79
2023/07/13 00:36:05;;;;;;;4.13;2.08;;;21.50;99.90;;;;;;5109383;28;20619;-79
2023/07/13 00:38:32;;;;;;;6.30;2.28;;;21.40;99.90;;;;;;5109160;28;20313;-80
2023/07/13 00:40:59;;;;;;;2.28;1.75;;;21.40;99.90;;;;;;5109481;28;20213;-79
2023/07/13 00:43:29;;;;;;;2.17;1.98;;;21.40;99.90;;;;;;5126946;27;20953;-79
2023/07/13 00:46:19;;;;;;;2.45;1.88;;;21.30;99.90;;;;;;5129558;27;20211;-79
2023/07/13 00:48:48;;;;;;;4.55;2.33;;;21.30;99.90;;;;;;5129218;27;20229;-79
2023/07/13 00:51:19;;;;;;;2.85;1.90;;;21.20;99.90;;;;;;5118194;27;20203;-79
2023/07/13 00:53:46;;;;;;;1.88;1.67;;;21.20;99.90;;;;;;5119651;27;20683;-79
2023/07/13 00:56:14;;;;;;;2.78;2.10;;;21.20;99.90;;;;;;5129252;27;20205;-79
2023/07/13 00:58:41;;;;;;;2.33;1.77;;;21.20;99.90;;;;;;5128693;27;20579;-79
2023/07/13 01:01:08;;;;;;;2.63;1.90;;;21.10;99.90;;;;;;5123954;27;20198;-79
2023/07/13 01:03:37;;;;;;;4.57;2.05;;;21.10;99.90;;;;;;5115919;27;20219;-79
2023/07/13 01:06:05;;;;;;;2.55;2.05;;;21.10;99.90;;;;;;5128990;27;20201;-79
2023/07/13 01:08:31;;;;;;;2.63;1.77;;;21.10;99.90;;;;;;5128762;27;20237;-79
2023/07/13 01:10:59;;;;;;;2.63;1.70;;;21.00;99.90;;;;;;5128992;27;20715;-79
2023/07/13 01:13:26;;;;;;;2.58;1.73;;;20.90;99.90;;;;;;5122256;27;20201;-79
2023/07/13 01:15:54;;;;;;;2.15;1.75;;;20.90;99.90;;;;;;5119093;27;20206;-79
2023/07/13 01:18:25;;;;;;;2.03;1.92;;;21.00;99.90;;;;;;5128547;27;20241;-79
2023/07/13 01:20:55;;;;;;;2.58;1.90;;;20.90;99.90;;;;;;5128882;27;20293;-80
2023/07/13 01:23:23;;;;;;;2.17;1.90;;;21.00;99.90;;;;;;5128513;27;20698;-79
2023/07/13 01:25:50;;;;;;;5.40;2.25;;;21.00;99.90;;;;;;5128038;27;20274;-79
2023/07/13 01:28:17;;;;;;;3.28;2.20;;;21.00;99.90;;;;;;5128005;27;20797;-79
2023/07/13 01:30:46;;;;;;;1.88;1.70;;;20.80;99.90;;;;;;5128576;27;20288;-79
2023/07/13 01:33:13;;;;;;;4.50;2.10;;;20.90;99.90;;;;;;5127430;27;20836;-79
2023/07/13 01:35:41;;;;;;;3.13;2.05;;;20.90;99.90;;;;;;5127782;27;20209;-79
2023/07/13 01:38:10;;;;;;;4.10;1.90;;;20.70;99.90;;;;;;5127307;27;20206;-79
2023/07/13 01:40:38;;;;;;;1.77;1.67;;;20.60;99.90;;;;;;5128055;27;20212;-79
2023/07/13 01:43:06;;;;;;;2.00;1.90;;;20.60;99.90;;;;;;5127343;27;20229;-80
2023/07/13 01:45:33;;;;;;;2.20;2.00;;;20.60;99.90;;;;;;5127560;27;20210;-80
2023/07/13 01:48:00;;;;;;;2.05;1.80;;;20.50;99.90;;;;;;5127678;27;20968;-80
2023/07/13 01:50:27;;;;;;;3.65;2.05;;;20.50;99.90;;;;;;5122292;27;20298;-79
2023/07/13 01:52:55;;;;;;;1.92;1.80;;;20.50;99.90;;;;;;5127020;27;20201;-80
2023/07/13 01:55:23;;;;;;;2.50;1.90;;;20.60;99.90;;;;;;5127526;27;20213;-79
2023/07/13 01:57:50;;;;;;;2.60;1.92;;;20.60;99.90;;;;;;5127755;27;20309;-79
2023/07/13 02:00:18;;;;;;;2.33;2.08;;;20.60;99.90;;;;;;5127715;27;20715;-79
2023/07/13 02:02:45;;;;;;;3.65;1.95;;;20.60;99.90;;;;;;5112008;27;20261;-79
2023/07/13 02:05:12;;;;;;;1.80;1.70;;;20.70;99.90;;;;;;5112973;27;20213;-79
2023/07/13 02:07:39;;;;;;;2.50;1.88;;;20.70;99.90;;;;;;5127091;27;20246;-79
2023/07/13 02:10:07;;;;;;;2.63;1.95;;;20.80;99.90;;;;;;5114247;27;20563;-79
2023/07/13 02:12:36;;;;;;;6.05;2.22;;;20.80;99.90;;;;;;5107173;28;20288;-79
2023/07/13 02:15:04;;;;;;;2.92;2.08;;;20.80;99.90;;;;;;5121460;27;20208;-80
2023/07/13 02:17:30;;;;;;;1.80;1.67;;;20.80;99.90;;;;;;5127640;27;20209;-79
2023/07/13 02:19:57;;;;;;;3.67;1.92;;;20.80;99.90;;;;;;5127184;27;20233;-79
2023/07/13 02:22:25;;;;;;;2.30;2.10;;;20.60;99.90;;;;;;5119950;27;20747;-79
2023/07/13 02:24:51;;;;;;;2.30;2.07;;;20.40;99.90;;;;;;5121484;27;20205;-79
2023/07/13 02:27:18;;;;;;;2.77;2.00;;;20.30;99.90;;;;;;5127060;27;20297;-79
2023/07/13 02:29:46;;;;;;;3.73;1.90;;;20.40;99.90;;;;;;5127455;27;20323;-80
2023/07/13 02:32:14;;;;;;;5.00;2.20;;;20.30;99.90;;;;;;5127235;27;20671;-79
2023/07/13 02:34:41;;;;;;;2.37;2.20;;;20.40;99.90;;;;;;5127250;27;20628;-79
2023/07/13 02:37:08;;;;;;;3.40;2.00;;;20.30;99.90;;;;;;5127268;27;20216;-80
2023/07/13 02:39:35;;;;;;;4.67;2.10;;;20.30;99.90;;;;;;5126854;27;20300;-80
2023/07/13 02:42:03;;;;;;;4.57;2.20;;;20.30;99.90;;;;;;5126961;27;20313;-79
2023/07/13 02:44:30;;;;;;;3.67;2.23;;;20.20;99.90;;;;;;5126705;27;20253;-79
2023/07/13 02:46:58;;;;;;;2.63;2.23;;;20.20;99.90;;;;;;5126855;27;20202;-79
2023/07/13 02:49:25;;;;;;;2.90;2.30;;;20.20;99.90;;;;;;5136679;27;20868;-80
2023/07/13 02:51:52;;;;;;;2.20;2.00;;;20.10;99.90;;;;;;5108585;27;20690;-79
2023/07/13 02:54:19;;;;;;;1.97;1.87;;;20.10;99.90;;;;;;5106409;28;20301;-79
2023/07/13 02:56:45;;;;;;;4.97;2.20;;;20.10;99.90;;;;;;5119405;27;20205;-80
2023/07/13 02:59:12;;;;;;;2.30;2.10;;;20.10;99.90;;;;;;5117267;27;20198;-80
2023/07/13 03:01:40;;;;;;;3.43;2.00;;;20.00;99.90;;;;;;5112976;27;20304;-80
2023/07/13 03:04:08;;;;;;;1.90;1.80;;;20.00;99.90;;;;;;5105886;28;20237;-80
2023/07/13 03:06:35;;;;;;;2.60;2.27;;;19.90;99.90;;;;;;5106072;28;20289;-80
2023/07/13 03:09:03;;;;;;;2.33;2.17;;;19.90;99.90;;;;;;5105806;28;20238;-79
2023/07/13 03:11:31;;;;;;;4.73;2.43;;;19.90;99.90;;;;;;5106130;28;20256;-80
2023/07/13 03:13:58;;;;;;;4.13;2.23;;;19.90;99.90;;;;;;5124651;27;20659;-80
2023/07/13 03:16:25;;;;;;;2.97;2.30;;;19.90;99.90;;;;;;5126375;27;20709;-79
2023/07/13 03:18:52;;;;;;;2.60;2.37;;;19.90;99.90;;;;;;5126166;27;20241;-79
2023/07/13 03:21:20;;;;;;;2.20;2.00;;;19.90;99.90;;;;;;5141008;27;20213;-79
2023/07/13 03:23:48;;;;;;;3.57;2.10;;;19.80;99.90;;;;;;5147065;27;20229;-80
2023/07/13 03:26:18;;;;;;;2.20;1.93;;;19.80;99.90;;;;;;5105965;28;20287;-79
2023/07/13 03:28:45;;;;;;;2.23;2.00;;;19.90;99.90;;;;;;5105786;28;20202;-80
2023/07/13 03:31:14;;;;;;;2.63;2.43;;;19.80;99.90;;;;;;5105532;28;20206;-79
2023/07/13 03:33:42;;;;;;;3.03;2.30;;;19.60;99.90;;;;;;5105804;28;20918;-80
2023/07/13 03:36:13;;;;;;;4.47;2.30;;;19.40;99.90;;;;;;5106456;28;20230;-79
2023/07/13 03:38:41;;;;;;;2.97;2.53;;;19.40;99.90;;;;;;5106057;28;20202;-81
2023/07/13 03:41:08;;;;;;;5.20;2.53;;;19.40;99.90;;;;;;5105571;28;20347;-80
2023/07/13 03:43:35;;;;;;;5.43;2.30;;;19.30;99.90;;;;;;5134921;27;20231;-80
2023/07/13 03:46:02;;;;;;;2.40;2.20;;;19.40;99.90;;;;;;5146008;27;20670;-79
2023/07/13 03:48:29;;;;;;;5.83;2.20;;;19.50;99.90;;;;;;5108592;27;20296;-79
2023/07/13 03:50:56;;;;;;;2.30;2.17;;;19.60;99.90;;;;;;5116364;28;20307;-79
2023/07/13 03:53:23;;;;;;;3.80;2.40;;;19.60;99.90;;;;;;5109585;28;20206;-80
2023/07/13 03:55:51;;;;;;;2.30;2.10;;;19.70;99.90;;;;;;5122681;27;20296;-79
2023/07/13 03:58:30;;;;;;;2.47;2.20;;;19.70;99.90;;;;;;5129903;27;20198;-79
2023/07/13 04:00:58;;;;;;;2.70;2.50;;;19.60;99.90;;;;;;5113812;27;20194;-79
2023/07/13 04:03:27;;;;;;;2.93;2.20;;;19.60;99.90;;;;;;5108885;28;20245;-79
2023/07/13 04:05:55;;;;;;;3.70;2.40;;;19.50;99.90;;;;;;5109621;28;20331;-79
2023/07/13 04:08:22;;;;;;;2.70;2.50;;;19.50;99.90;;;;;;5109273;28;20253;-80
2023/07/13 04:10:48;;;;;;;2.57;2.37;;;19.50;99.90;;;;;;5109903;27;20316;-80
2023/07/13 04:13:17;;;;;;;3.83;2.57;;;19.60;99.90;;;;;;5126585;27;20194;-80
2023/07/13 04:15:44;;;;;;;2.53;2.30;;;19.60;99.90;;;;;;5129864;27;20292;-81
2023/07/13 04:18:11;;;;;;;2.47;2.27;;;19.50;99.90;;;;;;5148435;27;20216;-80
2023/07/13 04:20:38;;;;;;;5.40;2.30;;;19.30;99.90;;;;;;5129670;27;20990;-80
2023/07/13 04:23:05;;;;;;;2.33;2.13;;;19.30;99.90;;;;;;5129823;27;20358;-79
2023/07/13 04:25:32;;;;;;;2.60;2.40;;;19.20;99.90;;;;;;5109093;28;20198;-79
2023/07/13 04:27:58;;;;;;;2.50;2.30;;;19.20;99.90;;;;;;5109206;28;20209;-81
2023/07/13 04:30:27;;;;;;;2.93;2.60;;;19.00;99.90;;;;;;5108866;28;20317;-79
2023/07/13 04:32:54;;;;;;;3.50;2.30;;;19.10;99.90;;;;;;5108782;28;20304;-81
2023/07/13 04:35:21;;;;;;;2.80;2.50;;;19.20;99.90;;;;;;5110211;27;20198;-81
2023/07/13 04:37:49;;;;;;;4.03;2.80;;;19.30;99.90;;;;;;5108505;28;20293;-81
2023/07/13 04:40:17;;;;;;;3.00;2.70;;;19.00;99.90;;;;;;5108278;28;20212;-81
2023/07/13 04:42:44;;;;;;;5.70;2.60;;;19.10;99.90;;;;;;5107749;28;20228;-81
2023/07/13 04:45:11;;;;;;;3.53;2.20;;;19.10;99.90;;;;;;5108387;28;20293;-81
2023/07/13 04:47:40;;;;;;;6.57;2.60;;;19.20;99.90;;;;;;5123493;27;20288;-81
2023/07/13 04:50:08;;;;;;;2.97;2.40;;;19.20;99.90;;;;;;5119079;27;20212;-81
2023/07/13 04:52:34;;;;;;;5.47;2.40;;;19.20;99.90;;;;;;5108741;28;20755;-81
2023/07/13 04:55:02;;;;;;;3.57;2.40;;;19.20;99.90;;;;;;5123769;27;20576;-80
2023/07/13 04:57:29;;;;;;;2.47;2.10;;;19.10;99.90;;;;;;5110122;27;20285;-81
2023/07/13 04:59:56;;;;;;;4.47;2.80;;;19.00;99.90;;;;;;5108380;28;20206;-81
2023/07/13 05:02:23;;;;;;;4.47;2.47;;;19.00;99.90;;;;;;5108611;28;20202;-81
2023/07/13 05:04:51;;;;;;;6.50;3.00;;;19.20;99.90;;;;;;5109699;27;20312;-81
2023/07/13 05:07:18;;;;;;;4.30;2.60;;;19.30;99.90;;;;;;5107153;28;20550;-83
2023/07/13 05:09:45;;;;;;;2.83;2.63;;;19.20;99.90;;;;;;5126590;27;20717;-81
2023/07/13 05:12:12;;;;;;;4.07;2.43;;;19.40;99.90;;;;;;5128656;27;20305;-81
2023/07/13 05:14:39;;;;;;;3.63;2.43;;;19.50;99.90;;;;;;5128107;27;20243;-81
2023/07/13 05:17:06;;;;;;;3.10;2.80;;;19.60;99.90;;;;;;5128179;27;20237;-80
2023/07/13 05:19:33;;;;;;;5.07;2.87;;;19.40;99.90;;;;;;5136693;27;20244;-81
2023/07/13 05:22:02;;;;;;;5.23;2.87;;;19.40;99.90;;;;;;5148910;27;20296;-80
2023/07/13 05:24:29;;;;;;;5.00;2.60;;;19.30;99.90;;;;;;5148938;27;20987;-80
2023/07/13 05:26:56;;;;;;;2.60;2.40;;;19.50;99.90;;;;;;5149321;27;20208;-80
2023/07/13 05:29:24;;;;;;;3.40;2.70;;;19.50;99.90;;;;;;5121551;27;20599;-81
2023/07/13 05:31:51;;;;;;;3.07;2.80;;;19.40;99.90;;;;;;5107447;28;20681;-81
2023/07/13 05:34:18;;;;;;;5.73;2.80;;;19.40;99.90;;;;;;5107336;28;20309;-81
2023/07/13 05:36:45;;;;;;;3.47;3.17;;;19.50;99.90;;;;;;5107423;28;20269;-81
2023/07/13 05:39:13;;;;;;;2.73;2.33;;;19.30;99.90;;;;;;5107573;28;20241;-81
2023/07/13 05:41:40;;;;;;;3.97;2.47;;;19.30;99.90;;;;;;5121601;27;20296;-80
2023/07/13 05:44:07;;;;;;;4.40;2.20;;;19.50;99.90;;;;;;5110263;27;20251;-82
2023/07/13 05:46:34;;;;;;;2.87;2.60;;;19.70;99.90;;;;;;5107508;28;20315;-81
2023/07/13 05:49:01;;;;;;;3.23;2.00;;;19.70;99.90;;;;;;5123758;27;20658;-80
2023/07/13 05:51:28;;;;;;;5.40;2.53;;;19.80;99.90;;;;;;5129207;27;20292;-80
2023/07/13 05:53:55;;;;;;;3.30;2.73;;;19.70;99.90;;;;;;5127410;27;20292;-81
2023/07/13 05:56:23;;;;;;;4.40;2.70;;;19.70;99.90;;;;;;5128048;27;20286;-80
2023/07/13 05:58:50;;;;;;;3.77;2.10;;;19.70;99.90;;;;;;5120066;27;20201;-81
2023/07/13 06:01:18;;;;;;;5.13;2.10;;;19.80;99.90;;;;;;5107114;28;20305;-80
2023/07/13 06:03:45;;;;;;;4.37;1.97;;;19.90;99.90;;;;;;5117301;27;20239;-80
2023/07/13 06:06:12;;;;;;;2.67;2.23;;;19.80;99.90;;;;;;5127605;27;20212;-81
2023/07/13 06:08:39;;;;;;;2.00;1.80;;;19.90;99.90;;;;;;5126644;27;20239;-80
2023/07/13 06:11:08;;;;;;;3.03;2.10;;;19.80;99.90;;;;;;5127030;27;20266;-80
2023/07/13 06:13:36;;;;;;;2.50;2.30;;;19.90;99.90;;;;;;5126327;27;20202;-80
2023/07/13 06:16:05;;;;;;;6.47;2.20;;;20.00;99.90;;;;;;5126959;27;20209;-80
2023/07/13 06:18:32;;;;;;;2.20;2.00;;;20.00;99.90;;;;;;5122893;27;20217;-80
2023/07/13 06:20:59;;;;;;;2.83;1.90;;;20.00;99.90;;;;;;5106323;28;20219;-81
2023/07/13 06:23:26;;;;;;;4.83;2.30;;;20.00;99.90;;;;;;5106726;27;20202;-80
2023/07/13 06:25:53;;;;;;;3.00;2.43;;;19.90;99.90;;;;;;5112835;27;20235;-81
2023/07/13 06:28:20;;;;;;;3.23;2.13;;;19.80;99.90;;;;;;5126723;27;20753;-80
2023/07/13 06:30:48;;;;;;;4.40;2.53;;;19.70;99.90;;;;;;5126791;27;20205;-80
2023/07/13 06:33:15;;;;;;;2.37;2.00;;;19.70;99.90;;;;;;5127039;27;20648;-81
2023/07/13 06:35:42;;;;;;;2.33;2.13;;;19.90;99.90;;;;;;5127346;27;20618;-81
2023/07/13 06:38:09;;;;;;;2.30;2.10;;;19.90;99.90;;;;;;5118668;27;20660;-80
2023/07/13 06:40:36;;;;;;;3.33;2.40;;;19.90;99.90;;;;;;5125508;27;20231;-80
2023/07/13 06:43:02;;;;;;;2.17;1.87;;;20.00;99.90;;;;;;5127202;27;20305;-80
2023/07/13 06:45:29;;;;;;;5.33;1.90;;;20.00;99.90;;;;;;5117344;27;20261;-80
2023/07/13 06:47:57;;;;;;;4.20;2.40;;;20.20;99.90;;;;;;5106912;28;20289;-80
2023/07/13 06:50:24;;;;;;;3.93;2.23;;;20.20;99.90;;;;;;5120458;27;20316;-80
2023/07/13 06:52:52;;;;;;;2.30;2.00;;;20.40;99.90;;;;;;5106032;27;20366;-80
2023/07/13 06:55:19;;;;;;;2.73;2.00;;;20.40;99.90;;;;;;5106277;27;20259;-80
2023/07/13 06:57:46;;;;;;;6.83;2.10;;;20.50;99.90;;;;;;5121782;27;20673;-81
2023/07/13 07:00:14;;;;;;;4.77;1.90;;;20.60;99.90;;;;;;5111080;27;20209;-81
2023/07/13 07:02:41;;;;;;;4.07;2.30;;;20.70;99.90;;;;;;5106112;28;20202;-81
2023/07/13 07:05:09;;;;;;;4.43;2.13;;;20.80;99.90;;;;;;5112656;27;20221;-80
2023/07/13 07:07:36;;;;;;;5.27;2.10;;;20.80;99.90;;;;;;5126266;27;20243;-80
2023/07/13 07:10:04;;;;;;;4.03;1.77;;;20.80;99.90;;;;;;5127171;27;20772;-80
2023/07/13 07:12:31;;;;;;;4.17;2.17;;;20.90;99.90;;;;;;5125553;27;20752;-80
2023/07/13 07:14:58;;;;;;;3.60;1.80;;;21.00;99.90;;;;;;5110482;27;20289;-81
2023/07/13 07:17:26;;;;;;;3.43;1.83;;;20.90;99.90;;;;;;5106249;28;20210;-81
2023/07/13 07:19:53;;;;;;;1.75;1.63;;;21.10;99.90;;;;;;5105877;28;20218;-81
2023/07/13 07:22:22;;;;;;;4.27;1.87;;;21.10;99.90;;;;;;5106095;28;20202;-80
2023/07/13 07:24:49;;;;;;;1.80;1.40;;;21.20;99.90;;;;;;5105494;28;20229;-80
2023/07/13 07:27:16;;;;;;;1.60;1.50;;;21.20;99.90;;;;;;5112152;27;20209;-80
2023/07/13 07:29:42;;;;;;;2.30;1.80;;;21.20;99.90;;;;;;5145731;27;20291;-80
2023/07/13 07:32:09;;;;;;;1.77;1.63;;;21.30;99.90;;;;;;5146887;27;20308;-80
2023/07/13 07:34:36;;;;;;;4.10;2.00;;;21.40;99.90;;;;;;5146746;27;20254;-80
2023/07/13 07:37:04;;;;;;;1.83;1.60;;;21.40;99.90;;;;;;5110420;28;20215;-80
2023/07/13 07:39:33;;;;;;;2.35;1.75;;;21.50;99.90;;;;;;5124962;28;20204;-80
2023/07/13 07:41:59;;;;;;;4.37;1.60;;;21.50;99.90;;;;;;5109108;28;20217;-81
2023/07/13 07:44:28;;;;;;;2.88;2.15;;;21.60;99.90;;;;;;5105824;28;20229;-80
2023/07/13 07:46:55;;;;;;;5.20;1.90;;;21.60;99.90;;;;;;5105657;28;20209;-80
2023/07/13 07:49:22;;;;;;;3.80;2.13;;;21.60;99.90;;;;;;5116568;27;20225;-80
2023/07/13 07:51:48;;;;;;;4.60;2.70;;;21.60;99.90;;;;;;5126136;28;20288;-80
2023/07/13 07:54:15;;;;;;;2.47;2.28;;;21.70;99.90;;;;;;5124572;28;20329;-80
2023/07/13 07:56:43;;;;;;;2.28;1.98;;;21.80;99.90;;;;;;5125799;28;20577;-80
2023/07/13 07:59:11;;;;;;;3.03;1.52;;;21.90;99.90;;;;;;5126263;28;20300;-81
2023/07/13 08:01:38;;;;;;;2.92;1.45;;;21.90;99.90;;;;;;5123093;28;20610;-80
2023/07/13 08:04:05;;;;;;;3.47;1.20;;;21.90;99.90;;;;;;5106617;28;20232;-80
2023/07/13 08:06:33;;;;;;;2.60;1.17;;;21.90;99.90;;;;;;5105673;28;20213;-80
2023/07/13 08:09:01;;;;;;;1.48;1.00;;;21.80;99.30;;;;;;5105000;28;20747;-81
2023/07/13 08:11:28;;;;;;;1.20;1.05;;;21.90;99.70;;;;;;5111568;28;20254;-81
2023/07/13 08:13:56;;;;;;;2.08;1.10;;;22.10;99.70;;;;;;5126182;28;20236;-80
2023/07/13 08:16:24;;;;;;;1.02;0.98;;;22.10;99.60;;;;;;5126043;28;20296;-80
2023/07/13 08:18:51;;;;;;;2.40;1.40;;;22.20;99.80;;;;;;5125939;27;20236;-80
2023/07/13 08:21:19;;;;;;;2.20;1.10;;;22.20;99.50;;;;;;5107816;28;20576;-81
2023/07/13 08:23:47;;;;;;;1.20;1.10;;;22.20;99.70;;;;;;5123114;28;20675;-80
2023/07/13 08:26:14;;;;;;;2.15;1.17;;;22.30;99.20;;;;;;5105474;28;20660;-80
2023/07/13 08:28:41;;;;;;;1.20;1.13;;;22.40;99.40;;;;;;5104890;28;20673;-80
2023/07/13 08:31:11;;;;;;;1.00;1.00;;;22.30;98.90;;;;;;5106367;28;20701;-81
2023/07/13 08:33:40;;;;;;;2.72;1.10;;;22.10;98.40;;;;;;5116605;28;20226;-81
2023/07/13 08:36:07;;;;;;;3.67;1.50;;;22.00;98.30;;;;;;5105012;28;20691;-81
2023/07/13 08:38:35;;;;;;;3.08;1.10;;;22.10;99.10;;;;;;5107531;28;20822;-80
2023/07/13 08:41:11;;;;;;;1.13;1.02;;;22.10;99.00;;;;;;5126656;27;20794;-80
2023/07/13 08:43:39;;;;;;;2.22;1.27;;;22.10;98.40;;;;;;5128913;27;20288;-80
2023/07/13 08:46:13;;;;;;;2.65;1.20;;;22.10;98.40;;;;;;5129340;27;20243;-80
2023/07/13 08:48:44;;;;;;;5.03;1.35;;;22.10;99.00;;;;;;5129430;27;20201;-81
2023/07/13 08:51:22;;;;;;;3.72;1.48;;;22.30;99.60;;;;;;5129737;27;20296;-81
2023/07/13 08:53:52;;;;;;;1.67;1.33;;;22.40;99.90;;;;;;5109946;27;20190;-80
2023/07/13 08:56:23;;;;;;;1.48;1.38;;;22.50;99.70;;;;;;5108567;28;20293;-80
2023/07/13 08:58:56;;;;;;;4.95;1.60;;;22.60;99.40;;;;;;5108252;28;20648;-80
2023/07/13 09:01:29;;;;;;;1.83;1.23;;;22.50;99.40;;;;;;5114655;27;20270;-80
2023/07/13 09:04:05;;;;;;;2.97;1.77;;;22.50;99.50;;;;;;5128715;27;20734;-80
2023/07/13 09:06:42;;;;;;;1.13;1.02;;;22.40;99.50;;;;;;5128742;27;20280;-80
2023/07/13 09:09:20;;;;;;;2.60;1.35;;;22.50;99.80;;;;;;5129001;27;20292;-81
2023/07/13 09:11:53;;;;;;;2.13;1.35;;;22.50;99.90;;;;;;5112817;27;20222;-80
2023/07/13 09:14:36;;;;;;;1.55;1.40;;;22.60;99.50;;;;;;5109033;27;20190;-81
2023/07/13 09:17:09;;;;;;;4.85;2.03;;;22.70;99.50;;;;;;5121278;27;20198;-81
2023/07/13 09:19:36;;;;;;;5.43;2.20;;;22.80;97.70;;;;;;5134565;27;20205;-80
2023/07/13 09:22:09;;;;;;;2.47;1.70;;;22.80;98.50;;;;;;5108239;28;20209;-80
2023/07/13 09:24:39;;;;;;;2.67;2.08;;;22.80;98.30;;;;;;5108318;28;20224;-81
2023/07/13 09:27:17;;;;;;;3.15;2.10;;;22.80;98.50;;;;;;5115580;27;20288;-80
2023/07/13 09:29:50;;;;;;;1.92;1.70;;;22.80;98.00;;;;;;5112578;27;20686;-80
2023/07/13 09:32:21;;;;;;;5.47;2.05;;;23.00;97.70;;;;;;5128181;27;20201;-80
2023/07/13 09:34:52;;;;;;;2.35;2.15;;;23.20;97.30;;;;;;5110881;27;20200;-80
2023/07/13 09:37:21;;;;;;;4.40;2.20;;;23.20;97.00;;;;;;5128514;27;20198;-80
2023/07/13 09:39:52;;;;;;;2.63;2.17;;;23.20;98.10;;;;;;5128471;27;20202;-81
2023/07/13 09:42:22;;;;;;;3.95;2.40;;;23.20;97.90;;;;;;5108908;27;20761;-81
2023/07/13 09:44:54;;;;;;;6.05;2.40;;;23.20;97.20;;;;;;5107595;28;20226;-80
2023/07/13 09:47:26;;;;;;;3.60;2.50;;;23.30;97.40;;;;;;5114942;27;20564;-80
2023/07/13 09:49:58;;;;;;;6.88;2.40;;;23.40;97.30;;;;;;5113229;27;20198;-80
2023/07/13 09:52:26;;;;;;;3.08;2.45;;;23.50;97.80;;;;;;5113761;27;20193;-81
2023/07/13 09:54:58;;;;;;;2.33;2.08;;;23.70;95.80;;;;;;5106917;28;20287;-80
2023/07/13 09:57:27;;;;;;;2.67;2.10;;;23.80;95.80;;;;;;5109633;27;20194;-80
2023/07/13 09:59:58;;;;;;;6.15;2.40;;;23.80;96.20;;;;;;5115249;27;20201;-80
2023/07/13 10:02:29;;;;;;;3.72;2.30;;;23.90;96.30;;;;;;5141684;27;20208;-80
2023/07/13 10:04:59;;;;;;;4.20;2.22;;;24.10;96.40;;;;;;5148680;27;20324;-80
2023/07/13 10:07:26;;;;;;;3.08;2.20;;;24.00;96.30;;;;;;5141927;27;20229;-82
2023/07/13 10:09:54;;;;;;;3.75;2.40;;;23.80;95.00;;;;;;5108701;27;20202;-80
2023/07/13 10:12:23;;;;;;;3.03;2.10;;;23.70;95.10;;;;;;5107342;28;20220;-80
2023/07/13 10:14:55;;;;;;;3.30;2.03;;;23.70;95.20;;;;;;5107331;28;20210;-80
2023/07/13 10:17:31;;;;;;;2.85;2.20;;;23.70;95.20;;;;;;5110125;27;20206;-80
2023/07/13 10:20:02;;;;;;;3.10;2.17;;;23.60;95.10;;;;;;5107087;28;20205;-80
2023/07/13 10:22:38;;;;;;;4.05;2.22;;;23.70;95.30;;;;;;5107693;28;20204;-81
2023/07/13 10:25:18;;;;;;;3.90;2.30;;;23.90;94.90;;;;;;5107706;28;20214;-80
2023/07/13 10:27:45;;;;;;;12.50;2.60;;;24.10;95.20;;;;;;5107939;27;20300;-80
2023/07/13 10:30:18;;;;;;;3.97;2.00;;;24.20;94.80;;;;;;5107136;28;20731;-80
2023/07/13 10:32:46;;;;;;;5.07;2.05;;;24.40;94.80;;;;;;5124252;27;20328;-79
2023/07/13 10:35:15;;;;;;;3.65;2.28;;;24.40;94.20;;;;;;5127452;27;20300;-80
2023/07/13 10:37:48;;;;;;;3.88;2.25;;;24.10;94.20;;;;;;5126722;27;20747;-80
2023/07/13 10:40:19;;;;;;;2.53;2.33;;;24.10;94.10;;;;;;5107108;28;20226;-80
2023/07/13 10:42:50;;;;;;;2.40;2.20;;;24.20;93.80;;;;;;5107126;28;20575;-80
2023/07/13 10:45:19;;;;;;;4.57;2.10;;;24.40;94.00;;;;;;5107510;28;20384;-80
2023/07/13 10:47:49;;;;;;;3.08;2.35;;;24.60;93.60;;;;;;5107130;28;20252;-80
2023/07/13 10:50:20;;;;;;;4.70;2.30;;;24.60;92.90;;;;;;5112630;27;20219;-80
2023/07/13 10:52:50;;;;;;;3.63;2.10;;;24.80;93.20;;;;;;5107528;28;20190;-80
2023/07/13 10:55:42;;;;;;;3.13;2.30;;;25.00;92.30;;;;;;5108864;28;20262;-80
2023/07/13 10:58:21;;;;;;;3.28;2.17;;;24.80;91.90;;;;;;5118537;27;20773;-80
2023/07/13 11:00:51;;;;;;;2.97;2.10;;;24.80;92.00;;;;;;5128655;27;20224;-80
2023/07/13 11:03:23;;;;;;;4.22;2.33;;;24.70;92.00;;;;;;5112903;27;20230;-80
2023/07/13 11:05:52;;;;;;;2.95;1.77;;;24.80;91.90;;;;;;5106382;28;20713;-80
2023/07/13 11:08:32;;;;;;;6.93;2.30;;;24.80;91.30;;;;;;5107409;28;20237;-83
2023/07/13 11:10:59;;;;;;;2.97;2.22;;;25.00;91.20;;;;;;5120290;27;20193;-80
2023/07/13 11:13:58;;;;;;;3.58;1.92;;;25.20;90.90;;;;;;5128506;27;20454;-80
2023/07/13 11:16:46;;;;;;;1.73;1.60;;;25.20;88.60;;;;;;5107839;28;20220;-80
2023/07/13 11:19:42;;;;;;;2.15;1.75;;;25.20;88.50;;;;;;5118119;27;20213;-80
2023/07/13 11:22:21;;;;;;;1.70;1.60;;;25.30;87.90;;;;;;5068964;27;20683;-80
2023/07/13 11:25:08;;;;;;;1.70;1.60;;;25.40;87.50;;;;;;5127440;27;20775;-80
2023/07/13 11:27:43;;;;;;;2.28;1.75;;;25.50;88.20;;;;;;5125681;27;20292;-80
2023/07/13 11:30:24;;;;;;;2.20;1.80;;;25.20;89.20;;;;;;5125971;27;20197;-81
2023/07/13 11:33:05;;;;;;;3.85;2.00;;;25.30;89.80;;;;;;5126729;28;20644;-80
2023/07/13 11:35:38;;;;;;;1.70;1.60;;;25.30;90.00;;;;;;5127568;28;20189;-80
2023/07/13 11:38:14;;;;;;;5.43;2.20;;;25.20;90.20;;;;;;5126865;28;20209;-80
2023/07/13 11:40:44;;;;;;;4.50;2.00;;;25.20;90.70;;;;;;5126869;28;20225;-80
2023/07/13 11:43:15;;;;;;;3.53;2.13;;;25.20;90.40;;;;;;5127370;28;20201;-80
2023/07/13 11:45:42;;;;;;;2.60;1.85;;;25.10;89.50;;;;;;5120117;28;20384;-80
2023/07/13 11:48:21;;;;;;;4.35;2.30;;;25.00;90.20;;;;;;5120919;27;20296;-80
2023/07/13 11:50:55;;;;;;;3.60;2.10;;;25.00;90.80;;;;;;5134250;27;20193;-80
2023/07/13 11:53:26;;;;;;;3.78;2.10;;;25.20;90.90;;;;;;5124991;28;20628;-83
2023/07/13 11:55:53;;;;;;;4.00;1.83;;;25.40;90.80;;;;;;5114505;28;20301;-80
2023/07/13 11:58:25;;;;;;;3.25;2.17;;;25.80;90.80;;;;;;5126491;28;20206;-80
2023/07/13 12:00:54;;;;;;;2.53;1.98;;;26.20;90.80;;;;;;5126616;28;20290;-80
2023/07/13 12:03:24;;;;;;;4.53;2.25;;;26.40;90.60;;;;;;5127102;28;20209;-81
2023/07/13 12:06:01;;;;;;;3.47;2.00;;;26.30;90.00;;;;;;5126648;28;20243;-80
2023/07/13 12:08:28;;;;;;;1.83;1.70;;;26.20;89.60;;;;;;5117999;27;20311;-80
2023/07/13 12:11:05;;;;;;;5.35;1.73;;;25.90;90.00;;;;;;5119308;28;20321;-80
2023/07/13 12:13:37;;;;;;;2.55;1.90;;;26.00;89.80;;;;;;5106789;28;20186;-80
2023/07/13 12:16:15;;;;;;;4.90;1.83;;;26.10;88.40;;;;;;5107794;27;20199;-80
2023/07/13 12:18:46;;;;;;;2.28;1.70;;;26.00;88.70;;;;;;5129633;27;20264;-81
2023/07/13 12:21:18;;;;;;;3.53;1.65;;;25.70;88.60;;;;;;5152087;27;20204;-81
2023/07/13 12:23:49;;;;;;;1.83;1.67;;;25.90;88.60;;;;;;5147371;27;20202;-80
2023/07/13 12:26:17;;;;;;;2.28;1.30;;;26.20;87.60;;;;;;5130395;27;20209;-80
2023/07/13 12:28:48;;;;;;;3.97;1.58;;;26.30;84.80;;;;;;5130564;27;20245;-82
2023/07/13 12:31:27;;;;;;;4.28;1.73;;;26.10;85.60;;;;;;5130636;27;20660;-80
2023/07/13 12:33:59;;;;;;;2.05;1.70;;;26.00;86.30;;;;;;5130972;27;20721;-80
2023/07/13 12:36:30;;;;;;;2.42;1.48;;;26.10;85.60;;;;;;5110875;28;20194;-80
2023/07/13 12:39:03;;;;;;;2.67;1.50;;;26.30;86.70;;;;;;5121459;27;20300;-80
2023/07/13 12:41:30;;;;;;;1.50;1.40;;;26.30;87.00;;;;;;5130832;27;20228;-80
2023/07/13 12:43:57;;;;;;;4.18;1.50;;;26.50;86.10;;;;;;5127366;27;20675;-80
2023/07/13 12:46:28;;;;;;;2.33;1.55;;;26.10;84.90;;;;;;5130305;27;20237;-79
2023/07/13 12:48:58;;;;;;;3.58;1.50;;;26.20;85.40;;;;;;5130722;27;20248;-80
2023/07/13 12:51:28;;;;;;;3.22;1.48;;;26.30;84.50;;;;;;5113843;27;20296;-80
2023/07/13 12:54:06;;;;;;;3.65;1.42;;;26.30;85.80;;;;;;5110298;27;20201;-80
2023/07/13 12:56:35;;;;;;;4.65;1.77;;;26.60;86.90;;;;;;5110180;28;20201;-79
2023/07/13 12:59:05;;;;;;;3.08;1.58;;;27.00;85.60;;;;;;5109540;28;20213;-80